sensor_id;sensor_type;location;lat;lon;timestamp;temperature;humidity
11132;DHT22;5620;53.570;9.718;2023-05-13T00:01:51;12.40;62.30
11132;DHT22;5620;53.570;9.718;2023-05-13T00:04:18;12.40;65.40
11132;DHT22;5620;53.570;9.718;2023-05-13T00:06:45;12.40;68.50
11132;DHT22;5620;53.570;9.718;2023-05-13T00:09:10;12.30;72.70
11132;DHT22;5620;53.570;9.718;2023-05-13T00:11:36;12.20;74.90
11132;DHT22;5620;53.570;9.718;2023-05-13T00:14:02;12.20;78.40
11132;DHT22;5620;53.570;9.718;2023-05-13T00:16:27;12.20;82.10
11132;DHT22;5620;53.570;9.718;2023-05-13T00:18:54;12.10;85.50
11132;DHT22;5620;53.570;9.718;2023-05-13T00:21:20;12.10;89.30
11132;DHT22;5620;53.570;9.718;2023-05-13T00:23:45;12.00;91.80
11132;DHT22;5620;53.570;9.718;2023-05-13T00:26:11;12.00;93.70
11132;DHT22;5620;53.570;9.718;2023-05-13T00:28:36;11.90;95.90
11132;DHT22;5620;53.570;9.718;2023-05-13T00:31:02;11.90;98.00
11132;DHT22;5620;53.570;9.718;2023-05-13T00:33:28;11.90;99.90
11132;DHT22;5620;53.570;9.718;2023-05-13T00:35:54;11.80;99.90
11132;DHT22;5620;53.570;9.718;2023-05-13T00:38:20;11.80;99.90
11132;DHT22;5620;53.570;9.718;2023-05-13T00:40:46;11.80;99.90
11132;DHT22;5620;53.570;9.718;2023-05-13T00:43:13;11.70;99.90
11132;DHT22;5620;53.570;9.718;2023-05-13T00:45:40;11.70;99.90
11132;DHT22;5620;53.570;9.718;2023-05-13T00:48:07;11.60;99.90
11132;DHT22;5620;53.570;9.718;2023-05-13T00:50:34;11.60;99.90
11132;DHT22;5620;53.570;9.718;2023-05-13T00:53:01;11.60;99.90
11132;DHT22;5620;53.570;9.718;2023-05-13T00:55:33;11.50;99.90
11132;DHT22;5620;53.570;9.718;2023-05-13T00:57:58;11.50;99.90
11132;DHT22;5620;53.570;9.718;2023-05-13T01:00:25;11.40;99.90
11132;DHT22;5620;53.570;9.718;2023-05-13T01:06:25;11.40;99.90
11132;DHT22;5620;53.570;9.718;2023-05-13T01:08:56;11.30;99.90
11132;DHT22;5620;53.570;9.718;2023-05-13T01:11:28;11.30;99.90
11132;DHT22;5620;53.570;9.718;2023-05-13T01:14:02;11.30;99.90
11132;DHT22;5620;53.570;9.718;2023-05-13T01:19:56;11.20;99.90
11132;DHT22;5620;53.570;9.718;2023-05-13T01:22:22;11.10;99.90
11132;DHT22;5620;53.570;9.718;2023-05-13T01:24:49;11.10;99.90
11132;DHT22;5620;53.570;9.718;2023-05-13T01:27:16;11.10;99.90
11132;DHT22;5620;53.570;9.718;2023-05-13T01:29:42;11.10;99.90
11132;DHT22;5620;53.570;9.718;2023-05-13T01:32:11;11.10;99.90
11132;DHT22;5620;53.570;9.718;2023-05-13T01:34:38;11.00;99.90
11132;DHT22;5620;53.570;9.718;2023-05-13T01:37:07;11.00;99.90
11132;DHT22;5620;53.570;9.718;2023-05-13T01:39:36;10.90;99.90
11132;DHT22;5620;53.570;9.718;2023-05-13T01:42:03;10.90;99.90
11132;DHT22;5620;53.570;9.718;2023-05-13T01:44:30;10.90;99.90
11132;DHT22;5620;53.570;9.718;2023-05-13T01:46:55;10.80;99.90
11132;DHT22;5620;53.570;9.718;2023-05-13T01:49:21;10.80;99.90
11132;DHT22;5620;53.570;9.718;2023-05-13T01:51:46;10.80;99.90
11132;DHT22;5620;53.570;9.718;2023-05-13T01:54:13;10.80;99.90
11132;DHT22;5620;53.570;9.718;2023-05-13T01:56:39;10.80;99.90
11132;DHT22;5620;53.570;9.718;2023-05-13T01:59:08;10.80;99.90
11132;DHT22;5620;53.570;9.718;2023-05-13T02:01:35;10.80;99.90
11132;DHT22;5620;53.570;9.718;2023-05-13T02:04:01;10.70;99.90
11132;DHT22;5620;53.570;9.718;2023-05-13T02:06:27;10.70;99.90
11132;DHT22;5620;53.570;9.718;2023-05-13T02:08:53;10.60;99.90
11132;DHT22;5620;53.570;9.718;2023-05-13T02:11:20;10.60;99.90
11132;DHT22;5620;53.570;9.718;2023-05-13T02:13:50;10.60;99.90
11132;DHT22;5620;53.570;9.718;2023-05-13T02:16:19;10.60;99.90
11132;DHT22;5620;53.570;9.718;2023-05-13T02:18:46;10.50;99.90
11132;DHT22;5620;53.570;9.718;2023-05-13T02:21:11;10.50;99.90
11132;DHT22;5620;53.570;9.718;2023-05-13T02:23:38;10.50;99.90
11132;DHT22;5620;53.570;9.718;2023-05-13T02:26:04;10.40;99.90
11132;DHT22;5620;53.570;9.718;2023-05-13T02:28:30;10.40;99.90
11132;DHT22;5620;53.570;9.718;2023-05-13T02:30:57;10.40;99.90
11132;DHT22;5620;53.570;9.718;2023-05-13T02:33:25;10.40;99.90
11132;DHT22;5620;53.570;9.718;2023-05-13T02:35:51;10.40;99.90
11132;DHT22;5620;53.570;9.718;2023-05-13T02:38:16;10.30;99.90
11132;DHT22;5620;53.570;9.718;2023-05-13T02:40:42;10.30;99.90
11132;DHT22;5620;53.570;9.718;2023-05-13T02:43:07;10.30;99.90
11132;DHT22;5620;53.570;9.718;2023-05-13T02:45:33;10.20;99.90
11132;DHT22;5620;53.570;9.718;2023-05-13T02:48:01;10.20;99.90
11132;DHT22;5620;53.570;9.718;2023-05-13T02:50:26;10.20;1.00
11132;DHT22;5620;53.570;9.718;2023-05-13T02:52:52;10.20;1.00
11132;DHT22;5620;53.570;9.718;2023-05-13T02:55:18;10.20;1.00
11132;DHT22;5620;53.570;9.718;2023-05-13T02:57:45;10.20;1.00
11132;DHT22;5620;53.570;9.718;2023-05-13T03:00:11;10.20;1.00
11132;DHT22;5620;53.570;9.718;2023-05-13T03:02:38;10.10;1.00
11132;DHT22;5620;53.570;9.718;2023-05-13T03:05:07;10.10;1.00
11132;DHT22;5620;53.570;9.718;2023-05-13T03:07:34;10.10;1.00
11132;DHT22;5620;53.570;9.718;2023-05-13T03:10:04;10.10;1.00
11132;DHT22;5620;53.570;9.718;2023-05-13T03:14:57;10.10;1.00
11132;DHT22;5620;53.570;9.718;2023-05-13T03:17:23;10.10;1.00
11132;DHT22;5620;53.570;9.718;2023-05-13T03:19:51;10.00;1.00
11132;DHT22;5620;53.570;9.718;2023-05-13T03:22:16;10.00;1.00
11132;DHT22;5620;53.570;9.718;2023-05-13T03:24:42;10.00;1.00
11132;DHT22;5620;53.570;9.718;2023-05-13T03:27:07;10.00;1.00
11132;DHT22;5620;53.570;9.718;2023-05-13T03:29:35;10.00;1.00
11132;DHT22;5620;53.570;9.718;2023-05-13T03:32:01;10.00;1.00
11132;DHT22;5620;53.570;9.718;2023-05-13T03:34:29;10.00;1.00
11132;DHT22;5620;53.570;9.718;2023-05-13T03:36:54;10.00;1.00
11132;DHT22;5620;53.570;9.718;2023-05-13T03:39:21;10.00;1.00
11132;DHT22;5620;53.570;9.718;2023-05-13T03:41:47;10.00;1.00
11132;DHT22;5620;53.570;9.718;2023-05-13T03:44:17;10.00;1.00
11132;DHT22;5620;53.570;9.718;2023-05-13T03:46:43;10.10;1.00
11132;DHT22;5620;53.570;9.718;2023-05-13T03:49:08;10.10;1.00
11132;DHT22;5620;53.570;9.718;2023-05-13T03:51:35;10.10;1.00
11132;DHT22;5620;53.570;9.718;2023-05-13T03:54:01;10.10;1.00
11132;DHT22;5620;53.570;9.718;2023-05-13T03:56:28;10.20;1.00
11132;DHT22;5620;53.570;9.718;2023-05-13T03:58:58;10.20;1.00
11132;DHT22;5620;53.570;9.718;2023-05-13T04:01:28;10.20;1.00
11132;DHT22;5620;53.570;9.718;2023-05-13T04:03:57;10.30;1.00
11132;DHT22;5620;53.570;9.718;2023-05-13T04:06:22;10.30;1.00
11132;DHT22;5620;53.570;9.718;2023-05-13T04:08:51;10.30;1.00
11132;DHT22;5620;53.570;9.718;2023-05-13T04:11:17;10.40;1.00
11132;DHT22;5620;53.570;9.718;2023-05-13T04:13:43;10.40;1.00
11132;DHT22;5620;53.570;9.718;2023-05-13T04:16:10;10.50;1.00
11132;DHT22;5620;53.570;9.718;2023-05-13T04:18:36;10.50;1.00
11132;DHT22;5620;53.570;9.718;2023-05-13T04:21:08;10.60;1.00
11132;DHT22;5620;53.570;9.718;2023-05-13T04:23:35;10.60;1.00
11132;DHT22;5620;53.570;9.718;2023-05-13T04:26:01;10.70;1.00
11132;DHT22;5620;53.570;9.718;2023-05-13T04:28:27;10.70;1.00
11132;DHT22;5620;53.570;9.718;2023-05-13T04:30:53;10.80;1.00
11132;DHT22;5620;53.570;9.718;2023-05-13T04:33:20;10.80;1.00
11132;DHT22;5620;53.570;9.718;2023-05-13T04:35:45;10.90;1.00
11132;DHT22;5620;53.570;9.718;2023-05-13T04:38:11;11.00;1.00
11132;DHT22;5620;53.570;9.718;2023-05-13T04:40:36;11.10;1.00
11132;DHT22;5620;53.570;9.718;2023-05-13T04:43:06;11.20;1.00
11132;DHT22;5620;53.570;9.718;2023-05-13T04:45:33;11.20;1.00
11132;DHT22;5620;53.570;9.718;2023-05-13T04:47:59;11.30;1.00
11132;DHT22;5620;53.570;9.718;2023-05-13T04:50:26;11.40;1.00
11132;DHT22;5620;53.570;9.718;2023-05-13T04:52:51;11.50;1.00
11132;DHT22;5620;53.570;9.718;2023-05-13T04:55:17;11.60;1.00
11132;DHT22;5620;53.570;9.718;2023-05-13T04:57:43;11.70;1.00
11132;DHT22;5620;53.570;9.718;2023-05-13T05:00:11;11.80;1.00
11132;DHT22;5620;53.570;9.718;2023-05-13T05:02:38;11.90;1.00
11132;DHT22;5620;53.570;9.718;2023-05-13T05:05:04;12.00;1.00
11132;DHT22;5620;53.570;9.718;2023-05-13T05:07:29;12.20;1.00
11132;DHT22;5620;53.570;9.718;2023-05-13T05:09:56;12.30;1.00
11132;DHT22;5620;53.570;9.718;2023-05-13T05:12:23;12.40;1.00
11132;DHT22;5620;53.570;9.718;2023-05-13T05:14:49;12.50;1.00
11132;DHT22;5620;53.570;9.718;2023-05-13T05:17:16;12.60;1.00
11132;DHT22;5620;53.570;9.718;2023-05-13T05:19:41;12.60;1.00
11132;DHT22;5620;53.570;9.718;2023-05-13T05:22:08;12.80;1.00
11132;DHT22;5620;53.570;9.718;2023-05-13T05:24:35;12.90;1.00
11132;DHT22;5620;53.570;9.718;2023-05-13T05:27:00;13.00;1.00
11132;DHT22;5620;53.570;9.718;2023-05-13T05:29:27;13.10;1.00
11132;DHT22;5620;53.570;9.718;2023-05-13T05:31:56;13.20;1.00
11132;DHT22;5620;53.570;9.718;2023-05-13T05:34:27;13.30;1.00
11132;DHT22;5620;53.570;9.718;2023-05-13T05:36:53;13.40;1.00
11132;DHT22;5620;53.570;9.718;2023-05-13T05:39:19;13.50;1.00
11132;DHT22;5620;53.570;9.718;2023-05-13T05:41:45;13.70;1.00
11132;DHT22;5620;53.570;9.718;2023-05-13T05:44:10;13.90;1.00
11132;DHT22;5620;53.570;9.718;2023-05-13T05:46:40;14.00;1.00
11132;DHT22;5620;53.570;9.718;2023-05-13T05:49:06;14.00;99.90
11132;DHT22;5620;53.570;9.718;2023-05-13T05:51:33;14.10;99.90
11132;DHT22;5620;53.570;9.718;2023-05-13T05:54:00;14.10;99.90
11132;DHT22;5620;53.570;9.718;2023-05-13T05:56:26;14.20;99.90
11132;DHT22;5620;53.570;9.718;2023-05-13T05:58:52;14.30;99.90
11132;DHT22;5620;53.570;9.718;2023-05-13T06:01:18;14.30;99.90
11132;DHT22;5620;53.570;9.718;2023-05-13T06:03:45;14.40;99.90
11132;DHT22;5620;53.570;9.718;2023-05-13T06:06:11;14.50;99.90
11132;DHT22;5620;53.570;9.718;2023-05-13T06:08:38;14.60;99.90
11132;DHT22;5620;53.570;9.718;2023-05-13T06:11:04;14.70;99.90
11132;DHT22;5620;53.570;9.718;2023-05-13T06:13:30;14.80;99.90
11132;DHT22;5620;53.570;9.718;2023-05-13T06:15:55;14.90;99.90
11132;DHT22;5620;53.570;9.718;2023-05-13T06:18:21;15.00;99.90
11132;DHT22;5620;53.570;9.718;2023-05-13T06:20:46;15.10;99.90
11132;DHT22;5620;53.570;9.718;2023-05-13T06:23:13;15.20;99.90
11132;DHT22;5620;53.570;9.718;2023-05-13T06:25:41;15.30;99.90
11132;DHT22;5620;53.570;9.718;2023-05-13T06:28:12;15.30;99.90
11132;DHT22;5620;53.570;9.718;2023-05-13T06:30:40;15.30;99.90
11132;DHT22;5620;53.570;9.718;2023-05-13T06:33:06;15.40;99.90
11132;DHT22;5620;53.570;9.718;2023-05-13T06:35:33;15.50;99.90
11132;DHT22;5620;53.570;9.718;2023-05-13T06:38:00;15.60;99.90
11132;DHT22;5620;53.570;9.718;2023-05-13T06:40:25;15.70;99.90
11132;DHT22;5620;53.570;9.718;2023-05-13T06:42:51;15.90;99.90
11132;DHT22;5620;53.570;9.718;2023-05-13T06:45:17;16.00;99.90
11132;DHT22;5620;53.570;9.718;2023-05-13T06:47:44;16.10;99.90
11132;DHT22;5620;53.570;9.718;2023-05-13T06:50:12;16.20;99.90
11132;DHT22;5620;53.570;9.718;2023-05-13T06:52:39;16.30;99.90
11132;DHT22;5620;53.570;9.718;2023-05-13T06:55:06;16.40;99.90
11132;DHT22;5620;53.570;9.718;2023-05-13T06:57:31;16.50;99.90
11132;DHT22;5620;53.570;9.718;2023-05-13T06:59:57;16.60;99.90
11132;DHT22;5620;53.570;9.718;2023-05-13T07:02:23;16.70;99.90
11132;DHT22;5620;53.570;9.718;2023-05-13T07:04:48;16.70;99.90
11132;DHT22;5620;53.570;9.718;2023-05-13T07:07:14;16.80;99.90
11132;DHT22;5620;53.570;9.718;2023-05-13T07:09:40;16.90;99.90
11132;DHT22;5620;53.570;9.718;2023-05-13T07:12:07;17.00;99.90
11132;DHT22;5620;53.570;9.718;2023-05-13T07:14:33;17.10;99.90
11132;DHT22;5620;53.570;9.718;2023-05-13T07:16:59;17.20;99.90
11132;DHT22;5620;53.570;9.718;2023-05-13T07:19:25;17.30;99.90
11132;DHT22;5620;53.570;9.718;2023-05-13T07:21:51;17.40;99.90
11132;DHT22;5620;53.570;9.718;2023-05-13T07:24:17;17.50;98.90
11132;DHT22;5620;53.570;9.718;2023-05-13T07:26:45;17.60;96.30
11132;DHT22;5620;53.570;9.718;2023-05-13T07:29:12;17.70;93.70
11132;DHT22;5620;53.570;9.718;2023-05-13T07:31:40;17.70;92.00
11132;DHT22;5620;53.570;9.718;2023-05-13T07:34:11;17.80;90.70
11132;DHT22;5620;53.570;9.718;2023-05-13T07:36:37;17.90;87.10
11132;DHT22;5620;53.570;9.718;2023-05-13T07:39:02;18.00;87.50
11132;DHT22;5620;53.570;9.718;2023-05-13T07:41:28;18.10;79.70
11132;DHT22;5620;53.570;9.718;2023-05-13T07:43:55;18.10;75.70
11132;DHT22;5620;53.570;9.718;2023-05-13T07:46:21;18.20;72.10
11132;DHT22;5620;53.570;9.718;2023-05-13T07:48:48;18.30;68.10
11132;DHT22;5620;53.570;9.718;2023-05-13T07:51:14;18.40;65.30
11132;DHT22;5620;53.570;9.718;2023-05-13T07:53:41;18.50;62.50
11132;DHT22;5620;53.570;9.718;2023-05-13T07:56:08;18.60;60.30
11132;DHT22;5620;53.570;9.718;2023-05-13T07:58:33;18.60;56.30
11132;DHT22;5620;53.570;9.718;2023-05-13T08:01:01;18.70;53.50
11132;DHT22;5620;53.570;9.718;2023-05-13T08:03:27;18.80;49.10
11132;DHT22;5620;53.570;9.718;2023-05-13T08:05:54;18.90;47.30
11132;DHT22;5620;53.570;9.718;2023-05-13T08:08:21;19.00;43.80
11132;DHT22;5620;53.570;9.718;2023-05-13T08:10:47;19.10;39.30
11132;DHT22;5620;53.570;9.718;2023-05-13T08:13:16;19.10;36.30
11132;DHT22;5620;53.570;9.718;2023-05-13T08:15:41;19.20;34.60
11132;DHT22;5620;53.570;9.718;2023-05-13T08:18:07;19.20;31.20
11132;DHT22;5620;53.570;9.718;2023-05-13T08:20:33;19.30;29.10
11132;DHT22;5620;53.570;9.718;2023-05-13T08:22:59;19.40;26.20
11132;DHT22;5620;53.570;9.718;2023-05-13T08:25:26;19.50;23.40
11132;DHT22;5620;53.570;9.718;2023-05-13T08:27:53;19.60;20.50
11132;DHT22;5620;53.570;9.718;2023-05-13T08:30:20;19.70;16.70
11132;DHT22;5620;53.570;9.718;2023-05-13T08:32:47;19.80;10.90
11132;DHT22;5620;53.570;9.718;2023-05-13T08:35:14;19.90;4.70
11132;DHT22;5620;53.570;9.718;2023-05-13T08:37:39;20.00;1.00
11132;DHT22;5620;53.570;9.718;2023-05-13T08:40:06;20.00;9.90
11132;DHT22;5620;53.570;9.718;2023-05-13T08:42:32;20.10;1.00
11132;DHT22;5620;53.570;9.718;2023-05-13T08:45:03;20.20;1.00
11132;DHT22;5620;53.570;9.718;2023-05-13T08:50:29;20.50;1.00
11132;DHT22;5620;53.570;9.718;2023-05-13T08:52:57;20.50;1.00
11132;DHT22;5620;53.570;9.718;2023-05-13T08:55:22;20.60;1.00
11132;DHT22;5620;53.570;9.718;2023-05-13T08:57:49;20.70;1.00
11132;DHT22;5620;53.570;9.718;2023-05-13T09:00:16;20.80;1.00
11132;DHT22;5620;53.570;9.718;2023-05-13T09:02:43;20.90;1.00
11132;DHT22;5620;53.570;9.718;2023-05-13T09:05:10;21.00;1.00
11132;DHT22;5620;53.570;9.718;2023-05-13T09:07:39;21.10;1.00
11132;DHT22;5620;53.570;9.718;2023-05-13T09:10:06;21.20;1.00
11132;DHT22;5620;53.570;9.718;2023-05-13T09:12:53;21.30;1.00
11132;DHT22;5620;53.570;9.718;2023-05-13T09:15:31;21.30;1.00
11132;DHT22;5620;53.570;9.718;2023-05-13T09:18:00;21.40;1.00
11132;DHT22;5620;53.570;9.718;2023-05-13T09:20:28;21.60;1.00
11132;DHT22;5620;53.570;9.718;2023-05-13T09:23:04;21.60;1.00
11132;DHT22;5620;53.570;9.718;2023-05-13T09:25:31;21.60;1.00
11132;DHT22;5620;53.570;9.718;2023-05-13T09:28:00;21.70;1.00
11132;DHT22;5620;53.570;9.718;2023-05-13T09:30:36;21.70;1.00
11132;DHT22;5620;53.570;9.718;2023-05-13T09:33:17;21.80;1.00
11132;DHT22;5620;53.570;9.718;2023-05-13T09:35:48;21.90;1.00
11132;DHT22;5620;53.570;9.718;2023-05-13T09:38:20;22.00;1.00
11132;DHT22;5620;53.570;9.718;2023-05-13T09:43:42;22.20;1.00
11132;DHT22;5620;53.570;9.718;2023-05-13T09:46:08;22.20;1.00
11132;DHT22;5620;53.570;9.718;2023-05-13T09:48:38;22.30;1.00
11132;DHT22;5620;53.570;9.718;2023-05-13T09:51:07;22.30;1.00
11132;DHT22;5620;53.570;9.718;2023-05-13T09:53:35;22.50;1.00
11132;DHT22;5620;53.570;9.718;2023-05-13T09:56:03;22.50;1.00
11132;DHT22;5620;53.570;9.718;2023-05-13T09:58:29;22.60;1.00
11132;DHT22;5620;53.570;9.718;2023-05-13T10:00:57;22.70;1.00
11132;DHT22;5620;53.570;9.718;2023-05-13T10:03:23;22.90;1.00
11132;DHT22;5620;53.570;9.718;2023-05-13T10:05:52;23.10;1.00
11132;DHT22;5620;53.570;9.718;2023-05-13T10:08:19;23.30;1.00
11132;DHT22;5620;53.570;9.718;2023-05-13T10:10:49;23.50;1.00
11132;DHT22;5620;53.570;9.718;2023-05-13T10:13:19;23.70;1.00
11132;DHT22;5620;53.570;9.718;2023-05-13T10:15:53;24.00;1.00
11132;DHT22;5620;53.570;9.718;2023-05-13T10:18:20;24.30;1.00
11132;DHT22;5620;53.570;9.718;2023-05-13T10:20:48;24.50;1.00
11132;DHT22;5620;53.570;9.718;2023-05-13T10:23:14;24.60;1.00
11132;DHT22;5620;53.570;9.718;2023-05-13T10:25:40;24.80;1.00
11132;DHT22;5620;53.570;9.718;2023-05-13T10:28:09;25.00;1.00
11132;DHT22;5620;53.570;9.718;2023-05-13T10:30:37;25.20;1.00
11132;DHT22;5620;53.570;9.718;2023-05-13T10:33:06;25.40;1.00
11132;DHT22;5620;53.570;9.718;2023-05-13T10:35:35;25.60;1.00
11132;DHT22;5620;53.570;9.718;2023-05-13T10:43:35;26.00;1.00
11132;DHT22;5620;53.570;9.718;2023-05-13T10:46:04;26.20;1.00
11132;DHT22;5620;53.570;9.718;2023-05-13T10:48:49;26.40;1.00
11132;DHT22;5620;53.570;9.718;2023-05-13T10:51:18;26.50;1.00
11132;DHT22;5620;53.570;9.718;2023-05-13T10:53:51;26.60;1.00
11132;DHT22;5620;53.570;9.718;2023-05-13T10:56:26;26.80;1.00
11132;DHT22;5620;53.570;9.718;2023-05-13T11:04:18;29.30;1.00
11132;DHT22;5620;53.570;9.718;2023-05-13T11:06:46;31.10;1.00
11132;DHT22;5620;53.570;9.718;2023-05-13T11:12:00;34.60;1.00
11132;DHT22;5620;53.570;9.718;2023-05-13T11:14:32;36.50;1.00
11132;DHT22;5620;53.570;9.718;2023-05-13T11:17:08;38.10;1.00
11132;DHT22;5620;53.570;9.718;2023-05-13T11:19:36;39.10;1.00
11132;DHT22;5620;53.570;9.718;2023-05-13T11:24:33;41.30;1.00
11132;DHT22;5620;53.570;9.718;2023-05-13T11:27:14;42.30;1.00
11132;DHT22;5620;53.570;9.718;2023-05-13T11:29:49;42.90;1.00
11132;DHT22;5620;53.570;9.718;2023-05-13T11:35:19;43.90;1.00
11132;DHT22;5620;53.570;9.718;2023-05-13T11:37:48;44.60;1.00
11132;DHT22;5620;53.570;9.718;2023-05-13T11:40:28;45.10;1.00
11132;DHT22;5620;53.570;9.718;2023-05-13T11:42:58;45.60;1.00
11132;DHT22;5620;53.570;9.718;2023-05-13T11:45:28;46.00;1.00
11132;DHT22;5620;53.570;9.718;2023-05-13T11:47:53;46.30;1.00
11132;DHT22;5620;53.570;9.718;2023-05-13T11:50:27;46.70;1.00
11132;DHT22;5620;53.570;9.718;2023-05-13T11:52:57;46.90;1.00
11132;DHT22;5620;53.570;9.718;2023-05-13T11:55:34;47.30;1.00
11132;DHT22;5620;53.570;9.718;2023-05-13T11:58:01;47.60;1.00
11132;DHT22;5620;53.570;9.718;2023-05-13T12:00:33;47.80;1.00
11132;DHT22;5620;53.570;9.718;2023-05-13T12:03:01;48.10;1.00
11132;DHT22;5620;53.570;9.718;2023-05-13T12:05:30;48.40;1.00
11132;DHT22;5620;53.570;9.718;2023-05-13T12:07:56;49.00;1.00
11132;DHT22;5620;53.570;9.718;2023-05-13T12:10:22;49.30;1.00
11132;DHT22;5620;53.570;9.718;2023-05-13T12:12:48;49.50;1.00
11132;DHT22;5620;53.570;9.718;2023-05-13T12:15:22;49.60;1.00
11132;DHT22;5620;53.570;9.718;2023-05-13T12:17:48;49.60;1.00
11132;DHT22;5620;53.570;9.718;2023-05-13T12:20:21;49.70;1.00
11132;DHT22;5620;53.570;9.718;2023-05-13T12:25:41;50.30;1.00
11132;DHT22;5620;53.570;9.718;2023-05-13T12:28:22;50.80;1.00
11132;DHT22;5620;53.570;9.718;2023-05-13T12:31:03;51.30;1.00
11132;DHT22;5620;53.570;9.718;2023-05-13T12:33:47;51.30;1.00
11132;DHT22;5620;53.570;9.718;2023-05-13T12:36:30;51.10;1.00
11132;DHT22;5620;53.570;9.718;2023-05-13T12:39:00;51.20;1.00
11132;DHT22;5620;53.570;9.718;2023-05-13T12:44:15;51.90;99.90
11132;DHT22;5620;53.570;9.718;2023-05-13T12:49:50;48.40;1.00
11132;DHT22;5620;53.570;9.718;2023-05-13T12:52:16;48.30;1.00
11132;DHT22;5620;53.570;9.718;2023-05-13T12:54:42;49.60;1.00
11132;DHT22;5620;53.570;9.718;2023-05-13T12:57:09;50.90;1.00
11132;DHT22;5620;53.570;9.718;2023-05-13T12:59:37;51.40;1.00
11132;DHT22;5620;53.570;9.718;2023-05-13T13:02:02;51.00;1.00
11132;DHT22;5620;53.570;9.718;2023-05-13T13:04:29;50.00;1.00
11132;DHT22;5620;53.570;9.718;2023-05-13T13:06:56;48.00;1.00
11132;DHT22;5620;53.570;9.718;2023-05-13T13:09:23;45.10;1.00
11132;DHT22;5620;53.570;9.718;2023-05-13T13:11:48;42.70;1.00
11132;DHT22;5620;53.570;9.718;2023-05-13T13:14:17;40.50;1.00
11132;DHT22;5620;53.570;9.718;2023-05-13T13:16:44;38.40;1.00
11132;DHT22;5620;53.570;9.718;2023-05-13T13:19:10;36.70;1.00
11132;DHT22;5620;53.570;9.718;2023-05-13T13:21:35;35.60;1.00
11132;DHT22;5620;53.570;9.718;2023-05-13T13:24:01;35.00;1.00
11132;DHT22;5620;53.570;9.718;2023-05-13T13:26:27;34.50;1.00
11132;DHT22;5620;53.570;9.718;2023-05-13T13:28:52;34.00;1.00
11132;DHT22;5620;53.570;9.718;2023-05-13T13:31:20;35.80;1.00
11132;DHT22;5620;53.570;9.718;2023-05-13T13:33:46;39.00;1.00
11132;DHT22;5620;53.570;9.718;2023-05-13T13:36:11;41.80;1.00
11132;DHT22;5620;53.570;9.718;2023-05-13T13:38:37;44.10;1.00
11132;DHT22;5620;53.570;9.718;2023-05-13T13:41:02;45.90;1.00
11132;DHT22;5620;53.570;9.718;2023-05-13T13:43:28;47.40;1.00
11132;DHT22;5620;53.570;9.718;2023-05-13T13:45:54;48.40;1.00
11132;DHT22;5620;53.570;9.718;2023-05-13T13:48:21;49.50;1.00
11132;DHT22;5620;53.570;9.718;2023-05-13T13:50:47;50.20;1.00
11132;DHT22;5620;53.570;9.718;2023-05-13T13:53:12;50.70;1.00
11132;DHT22;5620;53.570;9.718;2023-05-13T13:55:40;51.30;1.00
11132;DHT22;5620;53.570;9.718;2023-05-13T13:58:06;51.80;1.00
11132;DHT22;5620;53.570;9.718;2023-05-13T14:00:33;52.40;1.00
11132;DHT22;5620;53.570;9.718;2023-05-13T14:02:59;53.20;1.00
11132;DHT22;5620;53.570;9.718;2023-05-13T14:05:24;53.60;1.00
11132;DHT22;5620;53.570;9.718;2023-05-13T14:07:53;54.00;1.00
11132;DHT22;5620;53.570;9.718;2023-05-13T14:10:18;54.30;1.00
11132;DHT22;5620;53.570;9.718;2023-05-13T14:12:47;54.40;1.00
11132;DHT22;5620;53.570;9.718;2023-05-13T14:15:12;54.30;1.00
11132;DHT22;5620;53.570;9.718;2023-05-13T14:17:38;54.30;1.00
11132;DHT22;5620;53.570;9.718;2023-05-13T14:20:06;54.30;1.00
11132;DHT22;5620;53.570;9.718;2023-05-13T14:22:34;54.20;1.00
11132;DHT22;5620;53.570;9.718;2023-05-13T14:24:59;54.10;1.00
11132;DHT22;5620;53.570;9.718;2023-05-13T14:27:25;54.20;1.00
11132;DHT22;5620;53.570;9.718;2023-05-13T14:29:52;54.50;1.00
11132;DHT22;5620;53.570;9.718;2023-05-13T14:32:19;54.80;1.00
11132;DHT22;5620;53.570;9.718;2023-05-13T14:34:46;55.10;1.00
11132;DHT22;5620;53.570;9.718;2023-05-13T14:37:13;55.10;1.00
11132;DHT22;5620;53.570;9.718;2023-05-13T14:39:40;55.50;1.00
11132;DHT22;5620;53.570;9.718;2023-05-13T14:42:05;56.20;1.00
11132;DHT22;5620;53.570;9.718;2023-05-13T14:44:32;56.00;1.00
11132;DHT22;5620;53.570;9.718;2023-05-13T14:46:57;53.70;1.00
11132;DHT22;5620;53.570;9.718;2023-05-13T14:49:23;52.10;1.00
11132;DHT22;5620;53.570;9.718;2023-05-13T14:51:48;48.80;1.00
11132;DHT22;5620;53.570;9.718;2023-05-13T14:54:15;45.10;1.00
11132;DHT22;5620;53.570;9.718;2023-05-13T14:56:42;41.90;1.00
11132;DHT22;5620;53.570;9.718;2023-05-13T14:59:09;39.10;1.00
11132;DHT22;5620;53.570;9.718;2023-05-13T15:01:39;37.30;1.00
11132;DHT22;5620;53.570;9.718;2023-05-13T15:04:08;39.40;1.00
11132;DHT22;5620;53.570;9.718;2023-05-13T15:06:36;42.90;1.00
11132;DHT22;5620;53.570;9.718;2023-05-13T15:09:02;45.90;1.00
11132;DHT22;5620;53.570;9.718;2023-05-13T15:11:29;47.90;1.00
11132;DHT22;5620;53.570;9.718;2023-05-13T15:13:55;49.10;1.00
11132;DHT22;5620;53.570;9.718;2023-05-13T15:16:22;50.30;1.00
11132;DHT22;5620;53.570;9.718;2023-05-13T15:18:48;51.70;1.00
11132;DHT22;5620;53.570;9.718;2023-05-13T15:21:13;52.60;1.00
11132;DHT22;5620;53.570;9.718;2023-05-13T15:23:41;51.60;1.00
11132;DHT22;5620;53.570;9.718;2023-05-13T15:26:08;47.50;1.00
11132;DHT22;5620;53.570;9.718;2023-05-13T15:28:35;45.20;1.00
11132;DHT22;5620;53.570;9.718;2023-05-13T15:31:00;46.80;1.00
11132;DHT22;5620;53.570;9.718;2023-05-13T15:33:27;48.60;1.00
11132;DHT22;5620;53.570;9.718;2023-05-13T15:35:53;50.10;1.00
11132;DHT22;5620;53.570;9.718;2023-05-13T15:38:22;51.20;1.00
11132;DHT22;5620;53.570;9.718;2023-05-13T15:40:50;52.10;1.00
11132;DHT22;5620;53.570;9.718;2023-05-13T15:43:15;52.70;1.00
11132;DHT22;5620;53.570;9.718;2023-05-13T15:45:45;53.00;1.00
11132;DHT22;5620;53.570;9.718;2023-05-13T15:48:11;53.70;1.00
11132;DHT22;5620;53.570;9.718;2023-05-13T15:50:36;54.60;1.00
11132;DHT22;5620;53.570;9.718;2023-05-13T15:53:03;55.20;1.00
11132;DHT22;5620;53.570;9.718;2023-05-13T15:55:29;55.80;1.00
11132;DHT22;5620;53.570;9.718;2023-05-13T15:57:57;55.50;1.00
11132;DHT22;5620;53.570;9.718;2023-05-13T16:00:22;55.50;1.00
11132;DHT22;5620;53.570;9.718;2023-05-13T16:02:49;55.60;1.00
11132;DHT22;5620;53.570;9.718;2023-05-13T16:05:15;55.50;1.00
11132;DHT22;5620;53.570;9.718;2023-05-13T16:07:44;51.90;1.00
11132;DHT22;5620;53.570;9.718;2023-05-13T16:10:12;47.20;1.00
11132;DHT22;5620;53.570;9.718;2023-05-13T16:12:39;43.50;1.00
11132;DHT22;5620;53.570;9.718;2023-05-13T16:15:06;41.70;1.00
11132;DHT22;5620;53.570;9.718;2023-05-13T16:17:32;43.90;1.00
11132;DHT22;5620;53.570;9.718;2023-05-13T16:20:00;46.30;1.00
11132;DHT22;5620;53.570;9.718;2023-05-13T16:22:31;48.00;1.00
11132;DHT22;5620;53.570;9.718;2023-05-13T16:25:02;49.40;1.00
11132;DHT22;5620;53.570;9.718;2023-05-13T16:27:29;49.90;1.00
11132;DHT22;5620;53.570;9.718;2023-05-13T16:29:56;50.20;1.00
11132;DHT22;5620;53.570;9.718;2023-05-13T16:32:22;50.50;1.00
11132;DHT22;5620;53.570;9.718;2023-05-13T16:34:51;51.00;1.00
11132;DHT22;5620;53.570;9.718;2023-05-13T16:37:17;51.40;1.00
11132;DHT22;5620;53.570;9.718;2023-05-13T16:39:44;51.90;1.00
11132;DHT22;5620;53.570;9.718;2023-05-13T16:42:14;52.10;1.00